Time;durP1;ratioP1;P1;durP2;ratioP2;P2;SDS_P1;SDS_P2;PMS_P1;PMS_P2;Temp;Humidity;BMP_temperature;BMP_pressure;BME280_temperature;BME280_humidity;BME280_pressure;Samples;Min_cycle;Max_cycle;Signal;HPM_P1;HPM_P2
2022/04/23 00:01:24;;;;;;;9.93;5.75;;;;;;;;;;5002086;28;20197;-67
2022/04/23 00:03:49;;;;;;;9.85;5.78;;;;;;;;;;5002533;28;20068;-67
2022/04/23 00:06:15;;;;;;;11.65;5.63;;;;;;;;;;5002393;28;20397;-68
2022/04/23 00:08:40;;;;;;;12.45;6.00;;;;;;;;;;5001488;28;20033;-67
2022/04/23 00:11:05;;;;;;;12.18;5.70;;;;;;;;;;5002212;28;20367;-67
2022/04/23 00:13:31;;;;;;;10.40;6.00;;;;;;;;;;5001780;28;20948;-65
2022/04/23 00:15:56;;;;;;;9.25;6.00;;;;;;;;;;4999908;28;22007;-67
2022/04/23 00:18:21;;;;;;;9.80;6.28;;;;;;;;;;5000999;28;20024;-67
2022/04/23 00:20:49;;;;;;;10.15;6.10;;;;;;;;;;5001917;28;20662;-67
2022/04/23 00:23:14;;;;;;;7.97;6.15;;;;;;;;;;5001346;28;20064;-66
2022/04/23 00:25:41;;;;;;;10.00;6.85;;;;;;;;;;5001038;28;20033;-66
2022/04/23 00:28:07;;;;;;;8.98;6.55;;;;;;;;;;5001225;28;20420;-67
2022/04/23 00:30:33;;;;;;;11.38;6.60;;;;;;;;;;5002406;28;20269;-68
2022/04/23 00:33:02;;;;;;;11.52;7.65;;;;;;;;;;4992989;28;20501;-68
2022/04/23 00:35:27;;;;;;;11.25;7.05;;;;;;;;;;5000814;28;20261;-68
2022/04/23 00:37:53;;;;;;;10.80;6.97;;;;;;;;;;5001711;28;20427;-67
2022/04/23 00:40:20;;;;;;;12.48;7.05;;;;;;;;;;5001615;28;20065;-68
2022/04/23 00:42:51;;;;;;;8.52;6.88;;;;;;;;;;4999021;28;20037;-61
2022/04/23 00:45:16;;;;;;;10.90;6.97;;;;;;;;;;5001448;28;20530;-62
2022/04/23 00:47:44;;;;;;;9.95;6.65;;;;;;;;;;5000712;28;20037;-62
2022/04/23 00:50:10;;;;;;;9.77;6.85;;;;;;;;;;5000123;28;20033;-60
2022/04/23 00:52:36;;;;;;;11.43;6.63;;;;;;;;;;5001269;28;20488;-62
2022/04/23 00:55:04;;;;;;;10.07;6.88;;;;;;;;;;5000752;28;20351;-62
2022/04/23 00:57:30;;;;;;;10.80;6.97;;;;;;;;;;5000915;28;20242;-61
2022/04/23 00:59:55;;;;;;;12.85;7.65;;;;;;;;;;5013604;28;20270;-60
2022/04/23 01:02:22;;;;;;;15.00;7.75;;;;;;;;;;4999618;28;20353;-62
2022/04/23 01:04:48;;;;;;;10.93;7.57;;;;;;;;;;5000502;28;20042;-62
2022/04/23 01:07:13;;;;;;;14.35;8.57;;;;;;;;;;5000030;28;20484;-62
2022/04/23 01:09:44;;;;;;;15.90;9.45;;;;;;;;;;5000800;28;20029;-62
2022/04/23 01:12:12;;;;;;;16.27;8.83;;;;;;;;;;4997952;28;20133;-62
2022/04/23 01:14:56;;;;;;;17.08;9.00;;;;;;;;;;4999232;28;20029;-62
2022/04/23 01:17:24;;;;;;;13.15;8.65;;;;;;;;;;4999730;28;20033;-60
2022/04/23 01:19:49;;;;;;;18.20;9.27;;;;;;;;;;5014920;28;20185;-62
2022/04/23 01:22:15;;;;;;;14.15;9.18;;;;;;;;;;5000041;28;20744;-61
2022/04/23 01:24:41;;;;;;;16.58;8.35;;;;;;;;;;5000165;28;20025;-62
2022/04/23 01:27:10;;;;;;;13.20;8.60;;;;;;;;;;4999964;28;20063;-61
2022/04/23 01:29:35;;;;;;;14.40;9.13;;;;;;;;;;4999687;28;20544;-60
2022/04/23 01:32:06;;;;;;;14.77;9.60;;;;;;;;;;5015277;28;20094;-63
2022/04/23 01:34:34;;;;;;;14.32;10.48;;;;;;;;;;4999477;28;20528;-61
2022/04/23 01:36:59;;;;;;;16.42;10.55;;;;;;;;;;5000763;28;21748;-60
2022/04/23 01:39:24;;;;;;;16.38;10.95;;;;;;;;;;4999551;28;20036;-63
2022/04/23 01:41:53;;;;;;;15.73;10.60;;;;;;;;;;4998878;28;20328;-62
2022/04/23 01:44:21;;;;;;;16.00;11.43;;;;;;;;;;4999979;28;20030;-63
2022/04/23 01:46:46;;;;;;;18.73;12.63;;;;;;;;;;4999774;28;20136;-60
2022/04/23 01:49:11;;;;;;;18.13;13.10;;;;;;;;;;4999051;28;20043;-60
2022/04/23 01:51:39;;;;;;;19.17;13.45;;;;;;;;;;4999770;28;20367;-61
2022/04/23 01:54:04;;;;;;;20.65;14.57;;;;;;;;;;4997728;28;20763;-61
2022/04/23 01:56:32;;;;;;;18.98;14.32;;;;;;;;;;4999894;28;20025;-60
2022/04/23 01:58:57;;;;;;;20.27;14.40;;;;;;;;;;4999329;28;20033;-61
2022/04/23 02:01:24;;;;;;;19.67;14.18;;;;;;;;;;4999535;28;20040;-63
2022/04/23 02:03:51;;;;;;;20.88;15.45;;;;;;;;;;4999266;28;20075;-60
2022/04/23 02:06:17;;;;;;;21.48;15.95;;;;;;;;;;5013947;28;20048;-62
2022/04/23 02:08:44;;;;;;;23.38;16.65;;;;;;;;;;4999811;28;20592;-60
2022/04/23 02:11:10;;;;;;;19.90;16.23;;;;;;;;;;4999490;28;20026;-61
2022/04/23 02:13:35;;;;;;;23.25;17.08;;;;;;;;;;5014080;28;20040;-61
2022/04/23 02:16:06;;;;;;;22.40;17.50;;;;;;;;;;4998978;28;20324;-60
2022/04/23 02:18:32;;;;;;;23.33;18.00;;;;;;;;;;4981419;28;20062;-60
2022/04/23 02:20:58;;;;;;;25.98;19.38;;;;;;;;;;5013336;28;20123;-60
2022/04/23 02:23:23;;;;;;;25.35;19.30;;;;;;;;;;4999532;28;20215;-60
2022/04/23 02:25:49;;;;;;;26.17;19.30;;;;;;;;;;4998746;28;20483;-60
2022/04/23 02:28:16;;;;;;;25.77;18.98;;;;;;;;;;4999587;28;20060;-62
2022/04/23 02:30:42;;;;;;;25.73;20.02;;;;;;;;;;4998977;28;20041;-62
2022/04/23 02:33:07;;;;;;;25.45;18.95;;;;;;;;;;5009641;28;20151;-60
2022/04/23 02:35:34;;;;;;;25.00;20.02;;;;;;;;;;4998926;28;20579;-61
2022/04/23 02:38:01;;;;;;;25.92;20.15;;;;;;;;;;4997396;28;20040;-60
2022/04/23 02:40:27;;;;;;;25.95;20.48;;;;;;;;;;4996782;28;20196;-63
2022/04/23 02:42:53;;;;;;;27.30;20.45;;;;;;;;;;4997861;28;20029;-62
2022/04/23 02:45:20;;;;;;;25.55;20.67;;;;;;;;;;4998287;28;20115;-60
2022/04/23 02:47:55;;;;;;;26.25;21.05;;;;;;;;;;4997247;28;20029;-61
2022/04/23 02:50:30;;;;;;;28.52;21.33;;;;;;;;;;4996126;28;20511;-60
2022/04/23 02:52:56;;;;;;;27.73;21.52;;;;;;;;;;4999263;28;20044;-62
2022/04/23 02:55:23;;;;;;;27.52;21.65;;;;;;;;;;4998426;28;20515;-60
2022/04/23 02:57:48;;;;;;;29.48;21.35;;;;;;;;;;5013299;28;20544;-60
2022/04/23 03:00:14;;;;;;;26.02;20.58;;;;;;;;;;4988524;28;20032;-62
2022/04/23 03:02:39;;;;;;;27.35;21.27;;;;;;;;;;5012088;28;20521;-61
2022/04/23 03:05:06;;;;;;;30.52;22.90;;;;;;;;;;4997924;28;20114;-60
2022/04/23 03:07:33;;;;;;;26.70;22.17;;;;;;;;;;5013580;28;20409;-60
2022/04/23 03:09:59;;;;;;;29.13;22.67;;;;;;;;;;4998794;28;20089;-60
2022/04/23 03:12:24;;;;;;;27.17;22.65;;;;;;;;;;4997694;28;20029;-61
2022/04/23 03:14:52;;;;;;;31.38;22.80;;;;;;;;;;4996965;28;20502;-60
2022/04/23 03:17:17;;;;;;;29.77;22.88;;;;;;;;;;4998825;28;20037;-62
2022/04/23 03:19:43;;;;;;;28.88;22.77;;;;;;;;;;5000240;28;20565;-60
2022/04/23 03:22:08;;;;;;;29.75;23.27;;;;;;;;;;5000928;28;20114;-61
2022/04/23 03:24:36;;;;;;;28.40;22.70;;;;;;;;;;5002588;28;20041;-61
2022/04/23 03:27:02;;;;;;;27.08;22.67;;;;;;;;;;5003320;28;20248;-59
2022/04/23 03:29:28;;;;;;;27.77;21.30;;;;;;;;;;5010575;28;20079;-61
2022/04/23 03:31:53;;;;;;;29.15;22.77;;;;;;;;;;5017033;28;20999;-62
2022/04/23 03:34:19;;;;;;;26.92;21.38;;;;;;;;;;5001439;28;20057;-62
2022/04/23 03:36:44;;;;;;;28.40;23.50;;;;;;;;;;5000779;28;20268;-62
2022/04/23 03:39:10;;;;;;;27.52;22.70;;;;;;;;;;5002557;28;20037;-63
2022/04/23 03:41:35;;;;;;;28.98;23.38;;;;;;;;;;5001893;28;20521;-63
2022/04/23 03:44:00;;;;;;;28.52;23.13;;;;;;;;;;5016663;28;20065;-60
2022/04/23 03:46:26;;;;;;;31.75;23.48;;;;;;;;;;5001063;28;20038;-61
2022/04/23 03:48:51;;;;;;;28.70;23.52;;;;;;;;;;5000672;28;20582;-62
2022/04/23 03:51:17;;;;;;;30.55;24.42;;;;;;;;;;5002288;28;20808;-62
2022/04/23 03:53:42;;;;;;;30.15;23.85;;;;;;;;;;5001944;28;20094;-62
2022/04/23 03:56:09;;;;;;;28.58;23.95;;;;;;;;;;5011238;28;20033;-60
2022/04/23 03:58:34;;;;;;;28.98;23.63;;;;;;;;;;5002020;28;20632;-69
2022/04/23 04:01:00;;;;;;;32.45;24.13;;;;;;;;;;5001828;28;20232;-66
2022/04/23 04:03:26;;;;;;;29.20;23.42;;;;;;;;;;5002327;28;20480;-67
2022/04/23 04:05:54;;;;;;;30.10;23.85;;;;;;;;;;5000746;28;20294;-68
2022/04/23 04:08:19;;;;;;;31.25;24.25;;;;;;;;;;5002569;28;20064;-68
2022/04/23 04:10:47;;;;;;;29.88;24.23;;;;;;;;;;5001920;28;20408;-68
2022/04/23 04:13:13;;;;;;;28.48;22.88;;;;;;;;;;5001711;28;20025;-68
2022/04/23 04:15:40;;;;;;;29.75;24.40;;;;;;;;;;4994487;28;20053;-68
2022/04/23 04:18:06;;;;;;;29.20;23.63;;;;;;;;;;5002213;28;20192;-68
2022/04/23 04:20:32;;;;;;;30.63;23.42;;;;;;;;;;5002418;28;20025;-67
2022/04/23 04:22:57;;;;;;;27.77;22.92;;;;;;;;;;5001014;28;20037;-69
2022/04/23 04:25:25;;;;;;;29.63;23.63;;;;;;;;;;5002413;28;20501;-67
2022/04/23 04:27:51;;;;;;;29.63;23.35;;;;;;;;;;5001329;28;20367;-68
2022/04/23 04:30:16;;;;;;;30.73;23.88;;;;;;;;;;5001396;28;20655;-69
2022/04/23 04:32:41;;;;;;;29.25;23.67;;;;;;;;;;5000413;28;20128;-68
2022/04/23 04:35:08;;;;;;;27.35;23.15;;;;;;;;;;5000791;28;20343;-68
2022/04/23 04:37:33;;;;;;;28.20;23.35;;;;;;;;;;5001974;28;20029;-68
2022/04/23 04:40:01;;;;;;;30.65;22.95;;;;;;;;;;4999871;28;20041;-66
2022/04/23 04:42:27;;;;;;;27.50;23.33;;;;;;;;;;4999096;28;22353;-68
2022/04/23 04:44:52;;;;;;;29.58;23.63;;;;;;;;;;5009367;28;20041;-67
2022/04/23 04:47:18;;;;;;;27.55;22.70;;;;;;;;;;5001724;28;20052;-68
2022/04/23 04:49:43;;;;;;;27.40;22.48;;;;;;;;;;5000926;28;20773;-67
2022/04/23 04:52:08;;;;;;;25.30;22.25;;;;;;;;;;4999219;28;20029;-67
2022/04/23 04:54:34;;;;;;;26.23;21.42;;;;;;;;;;5000295;28;20490;-66
2022/04/23 04:57:02;;;;;;;26.48;21.80;;;;;;;;;;5001560;28;20186;-67
2022/04/23 04:59:28;;;;;;;26.23;21.33;;;;;;;;;;4998928;28;20363;-66
2022/04/23 05:01:53;;;;;;;28.00;21.73;;;;;;;;;;5001545;28;20169;-67
2022/04/23 05:04:19;;;;;;;24.85;21.58;;;;;;;;;;4999596;28;20713;-69
2022/04/23 05:06:45;;;;;;;26.15;21.42;;;;;;;;;;4999307;28;20076;-66
2022/04/23 05:09:10;;;;;;;24.20;20.08;;;;;;;;;;5014531;28;20337;-68
2022/04/23 05:11:38;;;;;;;24.45;19.85;;;;;;;;;;5001196;28;20944;-67
2022/04/23 05:14:03;;;;;;;25.50;20.48;;;;;;;;;;4997444;28;20127;-67
2022/04/23 05:16:29;;;;;;;22.63;20.10;;;;;;;;;;5000597;28;20139;-68
2022/04/23 05:18:57;;;;;;;22.23;19.08;;;;;;;;;;4997814;28;20029;-67
2022/04/23 05:21:22;;;;;;;23.40;18.80;;;;;;;;;;5014472;28;20033;-66
2022/04/23 05:23:47;;;;;;;24.40;19.38;;;;;;;;;;5000619;28;20059;-66
2022/04/23 05:26:13;;;;;;;22.98;18.48;;;;;;;;;;4999881;28;20025;-67
2022/04/23 05:28:40;;;;;;;22.35;18.40;;;;;;;;;;5000815;28;20186;-69
2022/04/23 05:31:06;;;;;;;23.00;17.83;;;;;;;;;;5000657;28;20293;-66
2022/04/23 05:33:33;;;;;;;20.80;18.00;;;;;;;;;;5000564;28;20343;-68
2022/04/23 05:35:58;;;;;;;25.48;19.40;;;;;;;;;;4998665;28;20037;-68
2022/04/23 05:38:24;;;;;;;20.48;17.20;;;;;;;;;;4998420;28;20548;-67
2022/04/23 05:40:52;;;;;;;21.55;18.02;;;;;;;;;;4999491;28;20362;-68
2022/04/23 05:43:19;;;;;;;20.75;17.27;;;;;;;;;;5014264;28;20029;-68
2022/04/23 05:45:47;;;;;;;21.23;17.55;;;;;;;;;;4999712;28;20056;-67
2022/04/23 05:48:13;;;;;;;19.75;16.30;;;;;;;;;;5000690;28;20410;-69
2022/04/23 05:50:42;;;;;;;18.75;16.30;;;;;;;;;;4999912;28;20029;-69
2022/04/23 05:53:07;;;;;;;19.35;15.95;;;;;;;;;;4999916;28;20555;-69
2022/04/23 05:55:34;;;;;;;20.02;15.82;;;;;;;;;;5014112;28;20116;-68
2022/04/23 05:57:59;;;;;;;18.90;16.15;;;;;;;;;;5000416;28;20286;-67
2022/04/23 06:00:25;;;;;;;18.73;15.52;;;;;;;;;;5007472;28;20048;-69
2022/04/23 06:02:58;;;;;;;20.50;16.30;;;;;;;;;;4996593;28;20033;-68
2022/04/23 06:05:23;;;;;;;20.65;16.50;;;;;;;;;;4999512;28;20037;-68
2022/04/23 06:07:51;;;;;;;20.35;16.42;;;;;;;;;;4999631;28;20066;-67
2022/04/23 06:10:17;;;;;;;21.63;16.23;;;;;;;;;;4998338;28;20033;-67
2022/04/23 06:12:42;;;;;;;20.15;15.88;;;;;;;;;;4997904;28;20060;-67
2022/04/23 06:15:08;;;;;;;17.40;15.50;;;;;;;;;;4999985;28;20122;-69
2022/04/23 06:17:33;;;;;;;18.25;15.63;;;;;;;;;;4999356;28;20063;-67
2022/04/23 06:19:59;;;;;;;19.25;15.70;;;;;;;;;;4997917;28;20129;-66
2022/04/23 06:22:24;;;;;;;19.42;16.23;;;;;;;;;;4998871;28;20174;-66
2022/04/23 06:24:52;;;;;;;19.15;16.70;;;;;;;;;;5000077;28;20495;-66
2022/04/23 06:27:20;;;;;;;21.35;16.88;;;;;;;;;;5000224;28;20083;-66
2022/04/23 06:29:45;;;;;;;17.77;15.88;;;;;;;;;;4997230;28;20434;-66
2022/04/23 06:32:11;;;;;;;20.52;16.02;;;;;;;;;;5013731;28;20036;-66
2022/04/23 06:34:37;;;;;;;17.05;15.25;;;;;;;;;;4997607;28;20041;-67
2022/04/23 06:37:02;;;;;;;17.88;15.52;;;;;;;;;;4999605;28;20033;-67
2022/04/23 06:39:32;;;;;;;16.02;14.30;;;;;;;;;;4999228;28;20129;-66
2022/04/23 06:42:03;;;;;;;16.40;13.45;;;;;;;;;;4999511;28;20033;-67
2022/04/23 06:44:30;;;;;;;15.82;14.13;;;;;;;;;;5014113;28;20444;-68
2022/04/23 06:46:55;;;;;;;14.95;13.35;;;;;;;;;;5014226;28;20064;-66
2022/04/23 06:49:21;;;;;;;15.25;13.43;;;;;;;;;;4997500;28;20079;-67
2022/04/23 06:51:47;;;;;;;17.05;13.90;;;;;;;;;;4995310;28;20029;-68
2022/04/23 06:54:14;;;;;;;19.15;14.10;;;;;;;;;;4997112;28;20832;-68
2022/04/23 06:56:39;;;;;;;16.15;13.52;;;;;;;;;;4999392;28;20256;-68
2022/04/23 06:59:05;;;;;;;15.00;13.50;;;;;;;;;;4999073;28;20663;-68
2022/04/23 07:01:30;;;;;;;14.27;12.77;;;;;;;;;;5014114;28;20037;-68
2022/04/23 07:03:59;;;;;;;13.77;11.75;;;;;;;;;;4998349;28;20158;-66
2022/04/23 07:06:24;;;;;;;13.88;12.48;;;;;;;;;;5013326;28;20879;-68
2022/04/23 07:08:50;;;;;;;14.73;12.35;;;;;;;;;;4998993;28;20534;-68
2022/04/23 07:11:15;;;;;;;13.45;12.05;;;;;;;;;;5014517;28;20142;-68
2022/04/23 07:13:40;;;;;;;14.13;12.63;;;;;;;;;;4998380;28;20040;-68
2022/04/23 07:16:06;;;;;;;14.05;12.02;;;;;;;;;;4998918;28;20025;-69
2022/04/23 07:18:35;;;;;;;14.90;12.45;;;;;;;;;;4996425;28;20085;-69
2022/04/23 07:21:00;;;;;;;15.75;12.40;;;;;;;;;;4998614;28;20788;-67
2022/04/23 07:26:11;;;;;;;13.20;11.90;;;;;;;;;;4995942;28;20403;-68
2022/04/23 07:28:37;;;;;;;14.00;11.48;;;;;;;;;;4998649;28;20045;-69
2022/04/23 07:31:05;;;;;;;15.32;12.52;;;;;;;;;;5014378;28;20048;-72
2022/04/23 07:38:58;;;;;;;15.18;11.52;;;;;;;;;;4999599;28;20068;-70
2022/04/23 07:41:24;;;;;;;12.90;11.50;;;;;;;;;;4998642;28;20434;-68
2022/04/23 07:43:49;;;;;;;14.02;11.82;;;;;;;;;;5000590;28;20110;-69
2022/04/23 07:46:16;;;;;;;13.98;11.65;;;;;;;;;;5004790;28;20032;-70
2022/04/23 07:48:42;;;;;;;12.93;11.57;;;;;;;;;;5004314;28;20037;-69
2022/04/23 07:51:10;;;;;;;14.98;12.48;;;;;;;;;;4999236;28;20400;-69
2022/04/23 07:53:39;;;;;;;13.43;12.00;;;;;;;;;;4999101;28;20029;-68
2022/04/23 07:56:05;;;;;;;13.52;11.57;;;;;;;;;;5012058;28;20538;-69
2022/04/23 07:58:31;;;;;;;15.75;12.60;;;;;;;;;;4996872;28;20047;-68
2022/04/23 08:00:56;;;;;;;15.35;11.90;;;;;;;;;;4999252;28;20405;-68
2022/04/23 08:03:22;;;;;;;13.18;11.82;;;;;;;;;;5015257;28;20021;-69
2022/04/23 08:05:47;;;;;;;13.90;11.95;;;;;;;;;;5001447;28;20491;-70
2022/04/23 08:08:14;;;;;;;12.98;11.55;;;;;;;;;;5002433;28;20029;-71
2022/04/23 08:10:40;;;;;;;13.63;12.15;;;;;;;;;;5002259;28;21884;-67
2022/04/23 08:13:05;;;;;;;13.82;12.05;;;;;;;;;;5001542;28;20050;-71
2022/04/23 08:15:31;;;;;;;15.68;12.60;;;;;;;;;;4997445;28;20475;-71
2022/04/23 08:17:56;;;;;;;14.10;11.85;;;;;;;;;;5002809;28;20181;-69
2022/04/23 08:20:24;;;;;;;13.48;12.07;;;;;;;;;;5001082;28;20044;-69
2022/04/23 08:22:49;;;;;;;13.75;12.30;;;;;;;;;;5000633;28;20321;-70
2022/04/23 08:25:16;;;;;;;13.60;12.20;;;;;;;;;;5002155;28;20069;-71
2022/04/23 08:27:51;;;;;;;15.55;12.45;;;;;;;;;;5001352;28;20644;-70
2022/04/23 08:30:35;;;;;;;13.65;12.23;;;;;;;;;;5002680;28;20115;-71
2022/04/23 08:33:01;;;;;;;15.30;12.32;;;;;;;;;;5000710;28;20603;-71
2022/04/23 08:35:29;;;;;;;14.95;12.05;;;;;;;;;;5001521;28;20281;-71
2022/04/23 08:37:56;;;;;;;16.33;12.48;;;;;;;;;;5015939;28;20621;-70
2022/04/23 08:40:21;;;;;;;13.30;11.90;;;;;;;;;;5016383;28;20174;-69
2022/04/23 08:42:47;;;;;;;15.52;12.27;;;;;;;;;;5001201;28;20863;-69
2022/04/23 08:45:13;;;;;;;14.85;12.23;;;;;;;;;;4999771;28;20025;-69
2022/04/23 08:47:44;;;;;;;13.57;12.15;;;;;;;;;;5002617;28;20036;-65
2022/04/23 08:50:09;;;;;;;14.02;12.50;;;;;;;;;;5000323;28;20248;-66
2022/04/23 08:52:35;;;;;;;15.38;12.43;;;;;;;;;;5002333;28;20235;-67
2022/04/23 08:55:02;;;;;;;15.52;12.88;;;;;;;;;;5000473;28;20033;-67
2022/04/23 08:57:29;;;;;;;14.63;12.15;;;;;;;;;;5003757;28;20428;-67
2022/04/23 08:59:56;;;;;;;15.20;12.18;;;;;;;;;;4998517;28;20087;-67
2022/04/23 09:02:26;;;;;;;14.82;12.43;;;;;;;;;;4999351;28;20114;-69
2022/04/23 09:04:52;;;;;;;14.27;12.05;;;;;;;;;;5015323;28;20198;-67
2022/04/23 09:07:18;;;;;;;14.05;12.57;;;;;;;;;;4999057;28;20682;-70
2022/04/23 09:09:50;;;;;;;15.50;13.90;;;;;;;;;;5001505;28;20400;-69
2022/04/23 09:12:17;;;;;;;17.25;13.82;;;;;;;;;;5001943;28;20503;-70
2022/04/23 09:14:45;;;;;;;16.02;12.82;;;;;;;;;;5001398;28;20581;-69
2022/04/23 09:25:30;;;;;;;16.23;14.55;;;;;;;;;;4999897;28;20794;-69
2022/04/23 09:28:12;;;;;;;17.38;14.88;;;;;;;;;;4998566;28;20545;-65
2022/04/23 09:30:37;;;;;;;18.47;14.23;;;;;;;;;;5000194;28;20037;-67
2022/04/23 09:33:02;;;;;;;15.73;13.48;;;;;;;;;;5000570;28;20040;-69
2022/04/23 09:35:28;;;;;;;16.27;14.48;;;;;;;;;;4996614;28;20029;-71
2022/04/23 09:38:11;;;;;;;18.83;15.15;;;;;;;;;;4999075;28;20095;-67
2022/04/23 09:40:37;;;;;;;23.05;14.48;;;;;;;;;;5000982;28;20364;-66
2022/04/23 09:43:07;;;;;;;17.75;14.73;;;;;;;;;;5000008;28;20288;-67
2022/04/23 09:45:39;;;;;;;16.35;14.23;;;;;;;;;;5000148;28;20086;-67
2022/04/23 09:48:10;;;;;;;18.20;14.88;;;;;;;;;;4994506;28;20270;-66
2022/04/23 09:50:39;;;;;;;20.10;14.88;;;;;;;;;;4999519;28;20536;-68
2022/04/23 09:53:07;;;;;;;18.30;15.23;;;;;;;;;;4998003;28;20033;-68
2022/04/23 09:55:34;;;;;;;17.60;14.77;;;;;;;;;;5000144;28;20021;-66
2022/04/23 09:58:00;;;;;;;18.90;15.63;;;;;;;;;;5001977;28;20033;-67
2022/04/23 10:00:26;;;;;;;18.52;15.35;;;;;;;;;;4998861;28;20082;-69
2022/04/23 10:02:55;;;;;;;18.60;15.30;;;;;;;;;;4998549;28;20290;-66
2022/04/23 10:05:23;;;;;;;18.60;14.73;;;;;;;;;;4998770;28;20489;-69
2022/04/23 10:07:50;;;;;;;19.10;14.60;;;;;;;;;;4999359;28;20040;-68
2022/04/23 10:10:16;;;;;;;19.08;15.70;;;;;;;;;;5001019;28;20658;-67
2022/04/23 10:12:45;;;;;;;18.60;14.50;;;;;;;;;;5015776;28;20029;-70
2022/04/23 10:15:11;;;;;;;17.67;15.05;;;;;;;;;;4998120;28;20178;-67
2022/04/23 10:17:37;;;;;;;16.75;14.85;;;;;;;;;;4998970;28;20840;-68
2022/04/23 10:20:02;;;;;;;18.20;14.90;;;;;;;;;;5001048;28;20262;-67
2022/04/23 10:22:34;;;;;;;17.70;15.25;;;;;;;;;;5003963;28;20112;-67
2022/04/23 10:25:00;;;;;;;17.60;14.50;;;;;;;;;;5003542;28;20552;-66
2022/04/23 10:27:28;;;;;;;20.25;15.75;;;;;;;;;;5004311;28;20036;-69
2022/04/23 10:30:02;;;;;;;20.98;16.23;;;;;;;;;;5003026;28;20830;-69
2022/04/23 10:32:35;;;;;;;20.10;15.65;;;;;;;;;;5003898;28;20033;-68
2022/04/23 10:35:02;;;;;;;22.55;16.52;;;;;;;;;;5004544;28;20989;-66
2022/04/23 10:37:28;;;;;;;18.70;16.23;;;;;;;;;;5003563;28;20759;-66
2022/04/23 10:39:53;;;;;;;18.83;16.48;;;;;;;;;;5018424;28;20028;-72
2022/04/23 10:42:24;;;;;;;19.00;16.67;;;;;;;;;;5002374;28;20032;-66
2022/04/23 10:44:50;;;;;;;18.23;16.25;;;;;;;;;;5001711;28;20545;-67
2022/04/23 10:47:32;;;;;;;21.05;16.98;;;;;;;;;;5002273;28;20036;-71
2022/04/23 10:50:13;;;;;;;21.50;17.20;;;;;;;;;;4999728;28;20252;-70
2022/04/23 10:52:39;;;;;;;22.33;16.80;;;;;;;;;;5001876;28;20039;-71
2022/04/23 10:55:04;;;;;;;23.60;16.55;;;;;;;;;;5001490;28;20064;-67
2022/04/23 10:57:29;;;;;;;21.13;16.45;;;;;;;;;;5002240;28;20855;-68
2022/04/23 10:59:56;;;;;;;20.80;16.67;;;;;;;;;;5001324;28;20036;-69
2022/04/23 11:02:21;;;;;;;21.13;16.75;;;;;;;;;;5001926;28;20119;-67
2022/04/23 11:13:31;;;;;;;25.70;17.85;;;;;;;;;;4998378;28;20338;-69
2022/04/23 11:16:06;;;;;;;22.45;18.02;;;;;;;;;;4999126;28;20656;-68
2022/04/23 11:18:37;;;;;;;22.70;18.08;;;;;;;;;;4999442;28;20027;-66
2022/04/23 11:21:09;;;;;;;21.38;17.90;;;;;;;;;;5000178;28;20021;-70
2022/04/23 11:23:37;;;;;;;23.83;17.52;;;;;;;;;;5004161;28;20055;-69
2022/04/23 11:26:03;;;;;;;22.48;18.65;;;;;;;;;;5004370;28;20029;-66
2022/04/23 11:28:30;;;;;;;21.95;17.88;;;;;;;;;;5003330;28;20037;-66
2022/04/23 11:30:57;;;;;;;26.08;18.23;;;;;;;;;;5003107;28;20164;-67
2022/04/23 11:33:22;;;;;;;22.80;18.27;;;;;;;;;;5001008;28;20045;-71
2022/04/23 11:35:48;;;;;;;24.83;18.17;;;;;;;;;;5004535;28;20021;-67
2022/04/23 11:38:26;;;;;;;22.30;17.92;;;;;;;;;;5005126;28;20156;-69
2022/04/23 11:40:52;;;;;;;23.80;18.02;;;;;;;;;;5004042;28;20115;-71
2022/04/23 11:43:31;;;;;;;22.63;18.48;;;;;;;;;;5008330;28;20121;-69
2022/04/23 11:46:00;;;;;;;24.30;17.45;;;;;;;;;;5008919;28;22365;-69
2022/04/23 11:48:25;;;;;;;21.70;16.55;;;;;;;;;;5007972;28;20040;-68
2022/04/23 11:51:03;;;;;;;23.27;17.02;;;;;;;;;;5006286;28;20025;-68
2022/04/23 11:53:46;;;;;;;22.83;17.30;;;;;;;;;;5007195;28;20025;-70
2022/04/23 11:56:19;;;;;;;24.15;17.10;;;;;;;;;;5006700;28;20049;-68
2022/04/23 11:58:44;;;;;;;21.00;16.10;;;;;;;;;;5009126;28;20025;-69
2022/04/23 12:01:11;;;;;;;20.70;15.98;;;;;;;;;;5008203;28;20052;-72
2022/04/23 12:03:36;;;;;;;20.77;17.48;;;;;;;;;;5007806;28;20055;-75
2022/04/23 12:06:01;;;;;;;22.05;17.38;;;;;;;;;;5008176;28;20725;-67
2022/04/23 12:08:27;;;;;;;23.77;16.33;;;;;;;;;;5004987;28;20769;-73
2022/04/23 12:10:56;;;;;;;22.40;16.10;;;;;;;;;;5006593;28;20033;-72
2022/04/23 12:13:22;;;;;;;22.80;16.02;;;;;;;;;;5008507;28;22307;-70
2022/04/23 12:15:51;;;;;;;25.77;15.77;;;;;;;;;;5006033;28;20021;-72
2022/04/23 12:18:19;;;;;;;19.67;15.32;;;;;;;;;;5007424;28;20025;-71
2022/04/23 12:20:46;;;;;;;20.50;13.65;;;;;;;;;;5007889;28;20757;-74
2022/04/23 12:23:11;;;;;;;22.33;15.77;;;;;;;;;;5022172;28;20037;-75
2022/04/23 12:25:37;;;;;;;25.25;16.13;;;;;;;;;;5005936;28;20036;-72
2022/04/23 12:28:02;;;;;;;20.40;15.50;;;;;;;;;;5007149;28;20145;-71
2022/04/23 12:41:55;;;;;;;20.25;15.30;;;;;;;;;;5006627;28;20645;-73
2022/04/23 12:44:21;;;;;;;18.80;15.25;;;;;;;;;;5022850;28;20909;-73
2022/04/23 12:47:00;;;;;;;20.65;14.90;;;;;;;;;;5007079;28;20025;-71
2022/04/23 12:49:47;;;;;;;22.30;15.27;;;;;;;;;;5007353;28;20025;-72
2022/04/23 12:52:14;;;;;;;18.85;14.98;;;;;;;;;;5006585;28;20056;-69
2022/04/23 12:54:39;;;;;;;20.60;15.00;;;;;;;;;;5005403;28;20025;-69
2022/04/23 12:57:15;;;;;;;18.70;14.93;;;;;;;;;;5006765;28;20024;-68
2022/04/23 12:59:40;;;;;;;19.13;14.63;;;;;;;;;;5006982;28;20032;-67
2022/04/23 13:02:09;;;;;;;19.83;14.50;;;;;;;;;;5021685;28;20037;-71
2022/04/23 13:04:34;;;;;;;22.48;15.18;;;;;;;;;;5005040;28;20067;-72
2022/04/23 13:09:44;;;;;;;20.42;15.32;;;;;;;;;;5006631;28;20702;-68
2022/04/23 13:12:09;;;;;;;18.25;13.98;;;;;;;;;;5006802;28;20032;-70
2022/04/23 13:14:35;;;;;;;21.73;14.27;;;;;;;;;;5004060;28;20036;-69
2022/04/23 13:17:00;;;;;;;21.40;14.77;;;;;;;;;;5003153;28;20110;-70
2022/04/23 13:19:29;;;;;;;19.83;14.68;;;;;;;;;;5006776;28;20032;-71
2022/04/23 13:21:54;;;;;;;18.38;14.32;;;;;;;;;;5007445;28;20021;-71
2022/04/23 13:24:19;;;;;;;17.50;15.13;;;;;;;;;;5003044;28;20605;-70
2022/04/23 13:26:46;;;;;;;19.55;13.63;;;;;;;;;;5002462;28;20075;-72
2022/04/23 13:29:12;;;;;;;19.38;13.40;;;;;;;;;;5001124;28;20152;-71
2022/04/23 13:31:39;;;;;;;21.38;13.95;;;;;;;;;;5001790;28;20454;-68
2022/04/23 13:34:04;;;;;;;17.08;13.10;;;;;;;;;;5000232;28;20107;-69
2022/04/23 13:36:34;;;;;;;20.27;14.63;;;;;;;;;;5001547;28;20027;-70
2022/04/23 13:39:00;;;;;;;20.70;13.73;;;;;;;;;;5017098;28;20025;-68
2022/04/23 13:41:25;;;;;;;15.80;13.40;;;;;;;;;;5002457;28;20162;-71
2022/04/23 13:43:53;;;;;;;17.80;14.23;;;;;;;;;;5015988;28;20025;-71
2022/04/23 13:46:18;;;;;;;16.55;13.73;;;;;;;;;;5016244;28;20249;-74
2022/04/23 13:48:44;;;;;;;16.03;12.97;;;;;;;;;;5001355;28;22511;-72
2022/04/23 13:51:09;;;;;;;19.35;14.00;;;;;;;;;;5001721;28;20101;-71
2022/04/23 13:53:34;;;;;;;17.65;14.18;;;;;;;;;;5001556;28;20465;-74
2022/04/23 13:56:03;;;;;;;17.42;13.32;;;;;;;;;;5006519;28;20611;-74
2022/04/23 13:58:28;;;;;;;18.13;12.95;;;;;;;;;;4998309;28;20149;-69
2022/04/23 14:00:53;;;;;;;17.67;13.10;;;;;;;;;;4996992;28;20033;-70
2022/04/23 14:11:31;;;;;;;19.13;13.23;;;;;;;;;;5011984;28;20182;-67
2022/04/23 14:13:56;;;;;;;18.10;13.07;;;;;;;;;;4996751;28;20416;-71
2022/04/23 14:16:21;;;;;;;20.75;12.50;;;;;;;;;;4997392;28;20064;-74
2022/04/23 14:18:50;;;;;;;17.85;13.50;;;;;;;;;;4998879;28;20443;-74
2022/04/23 14:21:18;;;;;;;16.95;12.43;;;;;;;;;;4998598;28;20214;-72
2022/04/23 14:23:43;;;;;;;17.10;13.13;;;;;;;;;;5008133;28;20025;-70
2022/04/23 14:26:11;;;;;;;15.77;12.73;;;;;;;;;;4999188;28;20026;-70
2022/04/23 14:28:37;;;;;;;18.75;12.32;;;;;;;;;;4997292;28;20302;-69
2022/04/23 14:31:02;;;;;;;14.73;12.27;;;;;;;;;;4997268;28;20037;-70
2022/04/23 14:33:28;;;;;;;18.13;12.02;;;;;;;;;;5012781;28;20025;-69
2022/04/23 14:35:53;;;;;;;18.05;12.23;;;;;;;;;;4997696;28;20029;-70
2022/04/23 14:38:18;;;;;;;16.42;11.48;;;;;;;;;;5012529;28;20525;-70
2022/04/23 14:40:44;;;;;;;13.98;11.57;;;;;;;;;;4994812;28;20953;-65
2022/04/23 14:43:09;;;;;;;14.00;11.60;;;;;;;;;;5012396;28;20233;-66
2022/04/23 14:45:39;;;;;;;13.02;11.25;;;;;;;;;;5007685;28;20036;-67
2022/04/23 14:48:05;;;;;;;15.43;10.60;;;;;;;;;;4995217;28;20564;-66
2022/04/23 14:53:10;;;;;;;15.07;10.77;;;;;;;;;;4996799;28;20036;-68
2022/04/23 14:53:17;;;;;;;14.15;10.95;;;;;;;;;;4997725;28;20052;-66
2022/04/23 14:55:43;;;;;;;14.45;10.68;;;;;;;;;;4995172;28;20416;-67
2022/04/23 14:58:09;;;;;;;12.35;11.10;;;;;;;;;;4997569;28;20301;-67
2022/04/23 15:00:37;;;;;;;13.77;11.23;;;;;;;;;;4994932;28;20075;-70
2022/04/23 15:03:03;;;;;;;15.93;11.50;;;;;;;;;;4997482;28;20045;-68
2022/04/23 15:05:31;;;;;;;12.88;10.88;;;;;;;;;;5011290;28;20444;-68